Time;durP1;ratioP1;P1;durP2;ratioP2;P2;SDS_P1;SDS_P2;PMS_P1;PMS_P2;Temp;Humidity;BMP_temperature;BMP_pressure;BME280_temperature;BME280_humidity;BME280_pressure;Samples;Min_cycle;Max_cycle;Signal;HPM_P1;HPM_P2
2023/10/03 00:01:37;;;;;;;;;;;19.90;74.20;;;;;;5079494;28;19916;-81
2023/10/03 00:04:03;;;;;;;;;;;19.80;73.90;;;;;;5078153;28;19974;-81
2023/10/03 00:06:29;;;;;;;;;;;19.90;74.20;;;;;;5076326;28;19920;-81
2023/10/03 00:08:54;;;;;;;;;;;19.90;73.70;;;;;;5078486;28;19909;-81
2023/10/03 00:11:20;;;;;;;;;;;19.90;73.90;;;;;;5076971;28;19919;-81
2023/10/03 00:13:47;;;;;;;;;;;19.90;73.70;;;;;;5078918;28;19924;-81
2023/10/03 00:16:12;;;;;;;;;;;19.80;74.00;;;;;;5076166;28;20026;-81
2023/10/03 00:18:38;;;;;;;;;;;19.80;73.80;;;;;;5078374;28;19955;-80
2023/10/03 00:21:03;;;;;;;;;;;19.80;74.20;;;;;;5075283;28;19966;-81
2023/10/03 00:23:30;;;;;;;;;;;19.80;74.00;;;;;;5076300;28;20012;-81
2023/10/03 00:25:59;;;;;;;;;;;19.90;74.00;;;;;;5078944;28;19943;-81
2023/10/03 00:28:26;;;;;;;;;;;19.90;73.70;;;;;;5076625;28;19916;-80
2023/10/03 00:30:52;;;;;;;;;;;19.90;73.90;;;;;;5077471;28;19913;-81
2023/10/03 00:33:18;;;;;;;;;;;19.90;73.70;;;;;;5077081;28;19916;-81
2023/10/03 00:35:43;;;;;;;;;;;19.90;73.80;;;;;;5077507;28;19908;-81
2023/10/03 00:38:13;;;;;;;;;;;19.80;74.10;;;;;;5078146;28;19919;-81
2023/10/03 00:40:40;;;;;;;;;;;19.80;74.40;;;;;;5077554;28;19970;-81
2023/10/03 00:43:07;;;;;;;;;;;19.70;75.10;;;;;;5073704;28;19951;-81
2023/10/03 00:45:33;;;;;;;;;;;19.70;74.40;;;;;;5075271;28;19951;-81
2023/10/03 00:48:02;;;;;;;;;;;19.70;74.80;;;;;;5075359;28;19916;-81
2023/10/03 00:50:28;;;;;;;;;;;19.60;75.10;;;;;;5078234;28;19927;-81
2023/10/03 00:52:55;;;;;;;;;;;19.60;75.30;;;;;;5077549;28;19919;-81
2023/10/03 00:55:22;;;;;;;;;;;19.60;75.30;;;;;;5076663;28;20435;-81
2023/10/03 00:57:47;;;;;;;;;;;19.60;75.10;;;;;;5074997;28;19912;-81
2023/10/03 01:00:16;;;;;;;;;;;19.70;74.80;;;;;;5076011;28;20014;-81
2023/10/03 01:02:45;;;;;;;;;;;19.70;75.10;;;;;;5079113;28;19915;-81
2023/10/03 01:05:18;;;;;;;;;;;19.70;74.40;;;;;;5079204;28;19940;-81
2023/10/03 01:07:49;;;;;;;;;;;19.80;73.80;;;;;;5078650;28;19913;-81
2023/10/03 01:10:17;;;;;;;;;;;19.80;73.70;;;;;;5073450;28;20104;-81
2023/10/03 01:12:44;;;;;;;;;;;20.00;73.60;;;;;;5076667;28;19912;-80
2023/10/03 01:15:10;;;;;;;;;;;20.00;73.30;;;;;;5074509;28;19917;-81
2023/10/03 01:17:37;;;;;;;;;;;20.00;73.40;;;;;;5077700;28;19916;-81
2023/10/03 01:20:08;;;;;;;;;;;20.00;73.20;;;;;;5064668;28;19935;-80
2023/10/03 01:22:37;;;;;;;;;;;20.00;73.20;;;;;;5060820;28;19917;-81
2023/10/03 01:25:04;;;;;;;;;;;20.00;73.50;;;;;;5075504;28;19912;-81
2023/10/03 01:27:29;;;;;;;;;;;20.00;73.60;;;;;;5090695;28;19963;-81
2023/10/03 01:29:55;;;;;;;;;;;20.00;73.60;;;;;;5075544;28;19912;-81
2023/10/03 01:32:21;;;;;;;;;;;20.00;73.80;;;;;;5076538;28;19986;-81
2023/10/03 01:34:47;;;;;;;;;;;19.90;73.80;;;;;;5077772;28;19975;-81
2023/10/03 01:37:14;;;;;;;;;;;19.80;74.10;;;;;;5077193;28;19955;-81
2023/10/03 01:39:39;;;;;;;;;;;19.90;74.60;;;;;;5077502;28;19912;-81
2023/10/03 01:42:06;;;;;;;;;;;19.90;74.40;;;;;;5073218;28;20001;-80
2023/10/03 01:44:32;;;;;;;;;;;19.90;74.50;;;;;;5070801;28;19913;-80
2023/10/03 01:46:57;;;;;;;;;;;19.90;74.20;;;;;;5074717;28;19930;-80
2023/10/03 01:49:25;;;;;;;;;;;19.90;74.40;;;;;;5075378;28;19999;-80
2023/10/03 01:51:53;;;;;;;;;;;19.90;73.90;;;;;;5077488;28;19982;-80
2023/10/03 01:54:18;;;;;;;;;;;19.90;74.30;;;;;;5076914;28;19955;-80
2023/10/03 01:56:43;;;;;;;;;;;19.80;74.90;;;;;;5078173;28;20344;-80
2023/10/03 01:59:09;;;;;;;;;;;19.80;74.80;;;;;;5072881;28;19970;-81
2023/10/03 02:01:37;;;;;;;;;;;19.80;74.30;;;;;;5074914;28;19948;-80
2023/10/03 02:04:03;;;;;;;;;;;19.80;75.20;;;;;;5076905;28;19908;-80
2023/10/03 02:06:28;;;;;;;;;;;19.80;74.40;;;;;;5074461;28;20450;-80
2023/10/03 02:08:54;;;;;;;;;;;19.80;74.80;;;;;;5076157;28;19972;-81
2023/10/03 02:11:19;;;;;;;;;;;19.80;74.10;;;;;;5070622;28;19913;-80
2023/10/03 02:13:46;;;;;;;;;;;19.80;75.00;;;;;;5057153;28;19923;-80
2023/10/03 02:16:13;;;;;;;;;;;19.80;75.10;;;;;;5076302;28;20235;-80
2023/10/03 02:18:40;;;;;;;;;;;19.70;74.90;;;;;;5067458;28;19954;-80
2023/10/03 02:21:06;;;;;;;;;;;19.80;74.90;;;;;;5072889;28;19975;-80
2023/10/03 02:23:32;;;;;;;;;;;19.80;74.70;;;;;;5075560;28;19909;-80
2023/10/03 02:26:10;;;;;;;;;;;19.80;75.00;;;;;;5069229;28;19920;-80
2023/10/03 02:28:40;;;;;;;;;;;19.80;74.50;;;;;;5074595;28;19933;-80
2023/10/03 02:31:09;;;;;;;;;;;19.70;74.70;;;;;;5067230;28;19920;-80
2023/10/03 02:33:43;;;;;;;;;;;19.70;74.80;;;;;;5077789;28;19916;-80
2023/10/03 02:36:10;;;;;;;;;;;19.80;74.10;;;;;;5075820;28;19920;-81
2023/10/03 02:38:38;;;;;;;;;;;19.80;74.00;;;;;;5074242;28;19931;-80
2023/10/03 02:41:07;;;;;;;;;;;19.80;73.90;;;;;;5072299;28;19960;-80
2023/10/03 02:43:34;;;;;;;;;;;19.90;73.50;;;;;;5061170;28;19931;-80
2023/10/03 02:46:00;;;;;;;;;;;19.90;73.80;;;;;;5074910;28;19913;-80
2023/10/03 02:48:25;;;;;;;;;;;19.90;73.20;;;;;;5075544;28;19912;-80
2023/10/03 02:50:51;;;;;;;;;;;20.00;73.40;;;;;;5076672;28;19931;-80
2023/10/03 02:53:20;;;;;;;;;;;20.00;72.80;;;;;;5081513;28;19909;-79
2023/10/03 02:55:47;;;;;;;;;;;20.10;72.80;;;;;;5080798;28;20401;-79
2023/10/03 02:58:17;;;;;;;;;;;20.10;72.50;;;;;;5068851;28;20324;-81
2023/10/03 03:00:43;;;;;;;;;;;20.10;72.70;;;;;;5074059;28;19912;-80
2023/10/03 03:03:10;;;;;;;;;;;20.00;73.30;;;;;;5069050;28;19971;-81
2023/10/03 03:05:36;;;;;;;;;;;20.10;72.90;;;;;;5076789;28;19922;-81
2023/10/03 03:08:39;;;;;;;;;;;20.10;72.00;;;;;;5076308;28;19916;-81
2023/10/03 03:10:58;;;;;;;;;;;20.10;72.20;;;;;;5056420;28;19966;-81
2023/10/03 03:13:25;;;;;;;;;;;20.20;71.80;;;;;;5068772;28;22516;-81
2023/10/03 03:16:01;;;;;;;;;;;20.20;72.20;;;;;;5077928;28;19919;-79
2023/10/03 03:18:40;;;;;;;;;;;20.20;72.10;;;;;;5084653;28;19909;-80
2023/10/03 03:21:08;;;;;;;;;;;20.10;72.40;;;;;;5072998;28;20487;-80
2023/10/03 03:23:37;;;;;;;;;;;20.10;72.30;;;;;;5075701;28;19909;-80
2023/10/03 03:28:42;;;;;;;;;;;20.00;73.80;;;;;;5068996;28;19939;-80
2023/10/03 03:31:16;;;;;;;;;;;19.80;74.20;;;;;;5075638;28;19908;-81
2023/10/03 03:33:43;;;;;;;;;;;19.80;74.10;;;;;;5078623;28;19963;-80
2023/10/03 03:36:08;;;;;;;;;;;19.80;73.80;;;;;;5080195;28;19917;-80
2023/10/03 03:38:34;;;;;;;;;;;19.90;73.20;;;;;;5074581;28;19920;-80
2023/10/03 03:40:59;;;;;;;;;;;19.80;73.70;;;;;;5078629;28;19932;-80
2023/10/03 03:43:25;;;;;;;;;;;19.80;73.90;;;;;;5075387;28;19923;-80
2023/10/03 03:45:52;;;;;;;;;;;19.80;73.90;;;;;;5075510;28;19967;-80
2023/10/03 03:48:21;;;;;;;;;;;19.80;73.50;;;;;;5079336;28;19919;-81
2023/10/03 03:50:49;;;;;;;;;;;20.10;72.10;;;;;;5078218;28;19916;-80
2023/10/03 03:53:16;;;;;;;;;;;20.10;72.70;;;;;;5077852;28;19927;-80
2023/10/03 03:55:42;;;;;;;;;;;20.20;71.90;;;;;;5074651;28;20226;-80
2023/10/03 03:58:14;;;;;;;;;;;20.20;71.50;;;;;;5076569;28;19908;-80
2023/10/03 04:00:45;;;;;;;;;;;20.20;71.80;;;;;;5076536;28;19913;-80
2023/10/03 04:03:13;;;;;;;;;;;20.20;71.80;;;;;;5071012;28;19923;-80
2023/10/03 04:05:40;;;;;;;;;;;20.20;71.60;;;;;;5079054;28;19935;-80
2023/10/03 04:08:06;;;;;;;;;;;20.30;71.30;;;;;;5075090;28;19912;-81
2023/10/03 04:10:33;;;;;;;;;;;20.30;71.50;;;;;;5072480;28;19912;-80
2023/10/03 04:12:59;;;;;;;;;;;20.40;71.00;;;;;;5076411;28;19916;-80
2023/10/03 04:15:25;;;;;;;;;;;20.40;71.00;;;;;;5079007;28;20377;-80
2023/10/03 04:17:50;;;;;;;;;;;20.50;70.60;;;;;;5071769;28;20404;-80
2023/10/03 04:20:21;;;;;;;;;;;20.60;70.40;;;;;;5077102;28;19912;-80
2023/10/03 04:22:47;;;;;;;;;;;20.60;70.00;;;;;;5080250;28;20377;-80
2023/10/03 04:25:15;;;;;;;;;;;20.60;69.90;;;;;;5089095;28;19912;-80
2023/10/03 04:27:41;;;;;;;;;;;20.70;69.80;;;;;;5082952;28;20428;-80
2023/10/03 04:30:13;;;;;;;;;;;20.80;69.50;;;;;;5079005;28;19917;-81
2023/10/03 04:32:42;;;;;;;;;;;20.80;69.40;;;;;;5079199;28;19919;-80
2023/10/03 04:35:11;;;;;;;;;;;20.80;69.50;;;;;;5081931;28;20038;-80
2023/10/03 04:37:38;;;;;;;;;;;20.80;69.50;;;;;;5082729;28;19958;-80
2023/10/03 04:40:06;;;;;;;;;;;20.80;69.30;;;;;;5076169;28;19909;-80
2023/10/03 04:42:32;;;;;;;;;;;20.90;69.50;;;;;;5077418;28;19913;-80
2023/10/03 04:44:57;;;;;;;;;;;20.80;69.70;;;;;;5077931;28;19915;-80
2023/10/03 04:47:23;;;;;;;;;;;20.80;69.50;;;;;;5081120;28;19924;-80
2023/10/03 04:49:48;;;;;;;;;;;21.00;68.90;;;;;;5083942;28;19908;-80
2023/10/03 04:52:14;;;;;;;;;;;21.00;68.90;;;;;;5088759;28;19923;-81
2023/10/03 04:54:40;;;;;;;;;;;21.10;68.90;;;;;;5083271;28;19916;-80
2023/10/03 04:57:05;;;;;;;;;;;21.10;68.60;;;;;;5082422;28;19939;-81
2023/10/03 04:59:30;;;;;;;;;;;21.10;69.00;;;;;;5078673;28;19934;-79
2023/10/03 05:01:56;;;;;;;;;;;21.10;69.00;;;;;;5087724;28;19948;-80
2023/10/03 05:04:21;;;;;;;;;;;21.30;68.20;;;;;;5090275;28;19908;-80
2023/10/03 05:06:49;;;;;;;;;;;21.30;68.20;;;;;;5075935;28;19923;-80
2023/10/03 05:09:15;;;;;;;;;;;21.20;68.70;;;;;;5086389;28;19908;-80
2023/10/03 05:11:42;;;;;;;;;;;21.30;68.50;;;;;;5083648;28;19962;-80
2023/10/03 05:14:08;;;;;;;;;;;21.30;68.50;;;;;;5079356;28;19924;-80
2023/10/03 05:16:35;;;;;;;;;;;21.20;68.90;;;;;;5083554;28;19934;-80
2023/10/03 05:19:00;;;;;;;;;;;21.20;68.80;;;;;;5082654;28;20346;-81
2023/10/03 05:21:26;;;;;;;;;;;21.30;69.00;;;;;;5083063;28;19909;-81
2023/10/03 05:23:52;;;;;;;;;;;21.20;69.20;;;;;;5078815;28;19919;-79
2023/10/03 05:26:18;;;;;;;;;;;21.30;69.30;;;;;;5074281;28;19912;-80
2023/10/03 05:28:44;;;;;;;;;;;21.20;69.60;;;;;;5060697;28;19921;-80
2023/10/03 05:31:13;;;;;;;;;;;21.10;69.70;;;;;;5071767;28;20073;-79
2023/10/03 05:33:38;;;;;;;;;;;21.20;69.80;;;;;;5077259;28;19920;-80
2023/10/03 05:36:04;;;;;;;;;;;21.10;70.10;;;;;;5076354;28;20297;-80
2023/10/03 05:38:29;;;;;;;;;;;21.00;70.60;;;;;;5077784;28;19953;-80
2023/10/03 05:40:55;;;;;;;;;;;21.10;70.10;;;;;;5077744;28;19995;-80
2023/10/03 05:43:20;;;;;;;;;;;21.10;70.50;;;;;;5071601;28;19979;-80
2023/10/03 05:45:49;;;;;;;;;;;21.10;70.50;;;;;;5068653;28;20439;-79
2023/10/03 05:48:15;;;;;;;;;;;21.10;70.50;;;;;;5077826;28;20362;-81
2023/10/03 05:50:41;;;;;;;;;;;21.10;70.70;;;;;;5076298;28;19970;-80
2023/10/03 05:53:06;;;;;;;;;;;21.00;71.00;;;;;;5075646;28;19908;-80
2023/10/03 05:55:32;;;;;;;;;;;21.10;71.00;;;;;;5070311;28;19912;-80
2023/10/03 05:57:57;;;;;;;;;;;21.00;71.10;;;;;;5075422;28;19926;-80
2023/10/03 06:00:25;;;;;;;;;;;21.00;71.30;;;;;;5072401;28;21303;-81
2023/10/03 06:02:51;;;;;;;;;;;21.00;71.20;;;;;;5076026;28;20314;-80
2023/10/03 06:05:16;;;;;;;;;;;21.00;71.30;;;;;;5063414;28;19924;-80
2023/10/03 06:07:43;;;;;;;;;;;21.00;71.50;;;;;;5066060;28;19951;-80
2023/10/03 06:10:10;;;;;;;;;;;21.10;71.60;;;;;;5075352;28;19926;-79
2023/10/03 06:12:36;;;;;;;;;;;21.00;71.90;;;;;;5076193;28;19908;-80
2023/10/03 06:15:04;;;;;;;;;;;21.00;71.90;;;;;;5072259;28;19923;-80
2023/10/03 06:17:31;;;;;;;;;;;21.00;72.10;;;;;;5073882;28;19915;-80
2023/10/03 06:19:56;;;;;;;;;;;21.00;72.20;;;;;;5075371;28;19915;-80
2023/10/03 06:22:22;;;;;;;;;;;21.00;72.50;;;;;;5074544;28;20090;-80
2023/10/03 06:24:49;;;;;;;;;;;20.90;72.90;;;;;;5068079;28;19952;-80
2023/10/03 06:27:14;;;;;;;;;;;21.00;72.80;;;;;;5062344;28;19956;-80
2023/10/03 06:29:40;;;;;;;;;;;20.90;73.20;;;;;;5074172;28;19919;-80
2023/10/03 06:32:06;;;;;;;;;;;20.80;73.50;;;;;;5073712;28;19908;-80
2023/10/03 06:34:32;;;;;;;;;;;20.80;73.70;;;;;;5068631;28;19913;-80
2023/10/03 06:36:57;;;;;;;;;;;20.90;73.60;;;;;;5061264;28;19991;-79
2023/10/03 06:39:23;;;;;;;;;;;21.00;73.60;;;;;;5074266;28;19909;-80
2023/10/03 06:41:49;;;;;;;;;;;20.90;73.60;;;;;;5075033;28;19923;-80
2023/10/03 06:44:14;;;;;;;;;;;20.90;74.00;;;;;;5072549;28;19923;-80
2023/10/03 06:46:42;;;;;;;;;;;20.90;74.00;;;;;;5065587;28;20317;-80
2023/10/03 06:49:07;;;;;;;;;;;20.90;73.90;;;;;;5073152;28;19912;-80
2023/10/03 06:51:33;;;;;;;;;;;20.90;74.00;;;;;;5075664;28;20008;-80
2023/10/03 06:53:58;;;;;;;;;;;20.80;74.40;;;;;;5074488;28;20015;-81
2023/10/03 06:56:25;;;;;;;;;;;20.80;74.60;;;;;;5069018;28;19924;-81
2023/10/03 06:58:50;;;;;;;;;;;20.80;74.80;;;;;;5061203;28;19920;-81
2023/10/03 07:01:16;;;;;;;;;;;20.80;74.70;;;;;;5066370;28;19908;-80
2023/10/03 07:03:42;;;;;;;;;;;20.70;74.90;;;;;;5074589;28;19909;-80
2023/10/03 07:06:07;;;;;;;;;;;20.70;75.10;;;;;;5070507;28;19919;-81
2023/10/03 07:08:33;;;;;;;;;;;20.70;75.30;;;;;;5065942;28;19912;-80
2023/10/03 07:10:59;;;;;;;;;;;20.60;75.30;;;;;;5078285;28;20000;-80
2023/10/03 07:13:26;;;;;;;;;;;20.60;75.50;;;;;;5075590;28;19960;-81
2023/10/03 07:15:51;;;;;;;;;;;20.60;75.50;;;;;;5073098;28;19920;-79
2023/10/03 07:18:17;;;;;;;;;;;20.70;75.50;;;;;;5060094;28;19927;-80
2023/10/03 07:20:43;;;;;;;;;;;20.60;75.50;;;;;;5073886;28;20381;-81
2023/10/03 07:23:08;;;;;;;;;;;20.60;75.50;;;;;;5073797;28;19931;-80
2023/10/03 07:25:34;;;;;;;;;;;20.60;75.40;;;;;;5074736;28;19916;-80
2023/10/03 07:28:00;;;;;;;;;;;20.60;75.30;;;;;;5062725;28;19947;-81
2023/10/03 07:30:25;;;;;;;;;;;20.60;75.40;;;;;;5074797;28;20293;-81
2023/10/03 07:32:51;;;;;;;;;;;20.50;75.60;;;;;;5075808;28;20369;-81
2023/10/03 07:35:19;;;;;;;;;;;20.50;75.70;;;;;;5073151;28;20014;-80
2023/10/03 07:37:45;;;;;;;;;;;20.50;75.70;;;;;;5068923;28;19920;-81
2023/10/03 07:40:10;;;;;;;;;;;20.40;76.00;;;;;;5074809;28;19908;-81
2023/10/03 07:42:38;;;;;;;;;;;20.30;76.60;;;;;;5075431;28;19978;-81
2023/10/03 07:45:05;;;;;;;;;;;20.30;76.90;;;;;;5065676;28;19955;-81
2023/10/03 07:47:31;;;;;;;;;;;20.30;76.60;;;;;;5069686;28;20385;-80
2023/10/03 07:49:59;;;;;;;;;;;20.30;76.50;;;;;;5074981;28;19909;-81
2023/10/03 07:52:27;;;;;;;;;;;20.30;76.80;;;;;;5072994;28;20313;-81
2023/10/03 07:54:56;;;;;;;;;;;20.40;76.50;;;;;;5073288;28;19912;-80
2023/10/03 07:57:25;;;;;;;;;;;20.40;75.60;;;;;;5064908;28;19969;-80
2023/10/03 07:59:51;;;;;;;;;;;20.40;75.30;;;;;;5067616;28;20541;-80
2023/10/03 08:02:17;;;;;;;;;;;20.40;75.00;;;;;;5072963;28;20009;-81
2023/10/03 08:04:45;;;;;;;;;;;20.50;75.00;;;;;;5074843;28;19909;-81
2023/10/03 08:07:21;;;;;;;;;;;20.50;74.60;;;;;;5065684;28;19927;-81
2023/10/03 08:09:47;;;;;;;;;;;20.50;74.30;;;;;;5071226;28;19912;-81
2023/10/03 08:12:13;;;;;;;;;;;20.50;74.50;;;;;;5074966;28;19916;-81
2023/10/03 08:14:39;;;;;;;;;;;20.60;74.20;;;;;;5074285;28;20201;-81
2023/10/03 08:17:05;;;;;;;;;;;20.60;74.40;;;;;;5075124;28;20007;-81
2023/10/03 08:19:30;;;;;;;;;;;20.50;74.60;;;;;;5073464;28;19952;-80
2023/10/03 08:21:58;;;;;;;;;;;20.50;74.50;;;;;;5078963;28;20381;-80
2023/10/03 08:24:28;;;;;;;;;;;20.50;74.50;;;;;;5078119;28;19920;-79
2023/10/03 08:26:54;;;;;;;;;;;20.40;74.50;;;;;;5078559;28;20278;-80
2023/10/03 08:29:23;;;;;;;;;;;20.40;74.90;;;;;;5072253;28;19947;-79
2023/10/03 08:31:49;;;;;;;;;;;20.30;75.20;;;;;;5077146;28;19915;-80
2023/10/03 08:34:19;;;;;;;;;;;20.30;75.10;;;;;;5076414;28;19999;-79
2023/10/03 08:36:45;;;;;;;;;;;20.30;75.20;;;;;;5069424;28;20012;-80
2023/10/03 08:39:14;;;;;;;;;;;20.40;75.20;;;;;;5064005;28;19909;-80
2023/10/03 08:41:47;;;;;;;;;;;20.40;74.90;;;;;;5076191;28;19913;-80
2023/10/03 08:44:13;;;;;;;;;;;20.50;74.90;;;;;;5077861;28;19909;-80
2023/10/03 08:46:43;;;;;;;;;;;20.50;74.90;;;;;;5077288;28;19912;-79
2023/10/03 08:49:10;;;;;;;;;;;20.50;74.90;;;;;;5065518;28;20396;-79
2023/10/03 08:51:35;;;;;;;;;;;20.50;74.30;;;;;;5077708;28;19909;-80
2023/10/03 08:54:10;;;;;;;;;;;20.50;74.30;;;;;;5075352;28;20297;-80
2023/10/03 08:56:36;;;;;;;;;;;20.50;74.40;;;;;;5070237;28;19913;-80
2023/10/03 08:59:08;;;;;;;;;;;20.50;74.70;;;;;;5064278;28;20385;-80
2023/10/03 09:01:34;;;;;;;;;;;20.40;74.80;;;;;;5076577;28;19999;-80
2023/10/03 09:04:05;;;;;;;;;;;20.30;75.30;;;;;;5075430;28;19908;-80
2023/10/03 09:06:38;;;;;;;;;;;20.40;76.20;;;;;;5071069;28;19923;-81
2023/10/03 09:09:13;;;;;;;;;;;20.30;76.20;;;;;;5070149;28;20427;-80
2023/10/03 09:11:39;;;;;;;;;;;20.20;76.10;;;;;;5075998;28;20003;-80
2023/10/03 09:14:05;;;;;;;;;;;20.10;76.40;;;;;;5073513;28;19920;-79
2023/10/03 09:16:38;;;;;;;;;;;20.10;76.40;;;;;;5070219;28;20008;-81
2023/10/03 09:19:04;;;;;;;;;;;20.10;76.50;;;;;;5061588;28;19915;-80
2023/10/03 09:21:30;;;;;;;;;;;20.10;76.30;;;;;;5073618;28;19916;-80
2023/10/03 09:24:01;;;;;;;;;;;20.10;76.40;;;;;;5075842;28;20262;-80
2023/10/03 09:26:45;;;;;;;;;;;20.00;76.80;;;;;;5070034;28;19916;-80
2023/10/03 09:29:11;;;;;;;;;;;19.90;77.60;;;;;;5067840;28;19922;-80
2023/10/03 09:31:37;;;;;;;;;;;19.90;78.00;;;;;;5088984;28;19919;-80
2023/10/03 09:34:02;;;;;;;;;;;19.80;78.20;;;;;;5091619;28;19909;-80
2023/10/03 09:36:28;;;;;;;;;;;20.00;77.70;;;;;;5070301;28;20293;-80
2023/10/03 09:38:55;;;;;;;;;;;20.00;77.70;;;;;;5063109;28;19912;-79
2023/10/03 09:41:24;;;;;;;;;;;20.00;77.40;;;;;;5065805;28;20324;-79
2023/10/03 09:43:56;;;;;;;;;;;20.00;78.70;;;;;;5065333;28;20199;-80
2023/10/03 09:46:41;;;;;;;;;;;19.90;79.00;;;;;;5073182;28;19917;-80
2023/10/03 09:49:10;;;;;;;;;;;20.00;78.70;;;;;;5062541;28;19913;-80
2023/10/03 09:51:51;;;;;;;;;;;20.10;78.00;;;;;;5074968;28;19999;-80
2023/10/03 09:54:24;;;;;;;;;;;20.40;77.50;;;;;;5076354;28;19913;-80
2023/10/03 09:56:51;;;;;;;;;;;20.40;76.50;;;;;;5069871;28;19920;-82
2023/10/03 09:59:18;;;;;;;;;;;20.40;75.80;;;;;;5076525;28;20362;-80
2023/10/03 10:01:45;;;;;;;;;;;20.40;75.90;;;;;;5073522;28;19982;-80
2023/10/03 10:04:13;;;;;;;;;;;20.40;76.00;;;;;;5075926;28;19955;-80
2023/10/03 10:06:47;;;;;;;;;;;20.40;75.90;;;;;;5070480;28;20336;-80
2023/10/03 10:09:23;;;;;;;;;;;20.30;76.00;;;;;;5071222;28;19908;-80
2023/10/03 10:12:09;;;;;;;;;;;20.30;76.40;;;;;;5076784;28;19916;-79
2023/10/03 10:15:14;;;;;;;;;;;20.30;76.40;;;;;;5075996;28;19939;-80
2023/10/03 10:17:51;;;;;;;;;;;20.10;76.40;;;;;;5024698;28;20011;-80
2023/10/03 10:20:38;;;;;;;;;;;20.20;76.90;;;;;;5024827;28;19913;-80
2023/10/03 10:25:41;;;;;;;;;;;20.20;76.70;;;;;;5074852;28;19940;-79
2023/10/03 10:28:08;;;;;;;;;;;20.20;76.70;;;;;;5063924;28;20387;-79
2023/10/03 10:30:34;;;;;;;;;;;20.20;77.30;;;;;;5075288;28;19908;-79
2023/10/03 10:33:22;;;;;;;;;;;20.10;78.30;;;;;;5074699;28;20301;-80
2023/10/03 10:36:03;;;;;;;;;;;19.80;83.00;;;;;;5074782;28;19913;-79
2023/10/03 10:38:52;;;;;;;;;;;19.20;84.90;;;;;;5071288;28;19997;-80
2023/10/03 10:41:21;;;;;;;;;;;18.80;86.40;;;;;;5069693;28;19954;-79
2023/10/03 10:44:09;;;;;;;;;;;18.60;86.90;;;;;;5077040;28;19909;-80
2023/10/03 10:46:36;;;;;;;;;;;18.40;87.70;;;;;;5071968;28;20010;-79
2023/10/03 10:49:06;;;;;;;;;;;18.30;87.90;;;;;;5071229;28;19971;-79
2023/10/03 10:51:36;;;;;;;;;;;18.20;88.20;;;;;;5078901;28;19908;-80
2023/10/03 10:54:04;;;;;;;;;;;18.10;88.70;;;;;;5092306;28;19909;-79
2023/10/03 10:56:32;;;;;;;;;;;18.00;89.00;;;;;;5069815;28;19912;-79
2023/10/03 10:59:04;;;;;;;;;;;18.00;89.10;;;;;;5069857;28;20114;-79
2023/10/03 11:01:30;;;;;;;;;;;18.00;89.30;;;;;;5075802;28;19960;-79
2023/10/03 11:03:56;;;;;;;;;;;18.00;89.60;;;;;;5072803;28;19966;-78
2023/10/03 11:06:23;;;;;;;;;;;17.90;89.60;;;;;;5060176;28;20325;-79
2023/10/03 11:08:49;;;;;;;;;;;17.90;90.00;;;;;;5060928;28;19912;-80
2023/10/03 11:11:15;;;;;;;;;;;17.90;89.80;;;;;;5066165;28;19924;-80
2023/10/03 11:13:48;;;;;;;;;;;18.00;89.70;;;;;;5062370;28;19917;-79
2023/10/03 11:16:20;;;;;;;;;;;18.00;89.60;;;;;;5074963;28;19908;-80
2023/10/03 11:18:46;;;;;;;;;;;18.10;89.70;;;;;;5073339;28;20377;-80
2023/10/03 11:21:12;;;;;;;;;;;18.10;89.50;;;;;;5073861;28;19920;-79
2023/10/03 11:23:38;;;;;;;;;;;18.00;89.40;;;;;;5067996;28;19985;-80
2023/10/03 11:26:05;;;;;;;;;;;18.00;89.50;;;;;;5073742;28;19909;-79
2023/10/03 11:28:43;;;;;;;;;;;17.90;89.50;;;;;;5074683;28;19951;-79
2023/10/03 11:31:09;;;;;;;;;;;17.90;90.00;;;;;;5065593;28;19909;-80
2023/10/03 11:33:42;;;;;;;;;;;17.90;89.50;;;;;;5064247;28;19944;-80
2023/10/03 11:36:07;;;;;;;;;;;18.00;89.10;;;;;;5071313;28;19913;-79
2023/10/03 11:38:43;;;;;;;;;;;18.20;88.20;;;;;;5090888;28;19932;-79
2023/10/03 11:41:08;;;;;;;;;;;18.20;87.00;;;;;;5065361;28;19951;-80
2023/10/03 11:43:42;;;;;;;;;;;18.30;86.80;;;;;;5063058;28;20136;-80
2023/10/03 11:46:10;;;;;;;;;;;18.30;85.70;;;;;;5074097;28;19908;-81
2023/10/03 11:48:36;;;;;;;;;;;18.30;84.60;;;;;;5074319;28;20038;-80
2023/10/03 11:51:01;;;;;;;;;;;18.30;83.90;;;;;;5071305;28;19960;-79
2023/10/03 11:53:27;;;;;;;;;;;18.30;84.70;;;;;;5070291;28;19912;-80
2023/10/03 11:55:52;;;;;;;;;;;18.40;83.70;;;;;;5077751;28;20404;-79
2023/10/03 11:58:18;;;;;;;;;;;18.20;83.30;;;;;;5076098;28;19915;-80
2023/10/03 12:00:44;;;;;;;;;;;18.30;82.70;;;;;;5078384;28;19916;-80
2023/10/03 12:03:10;;;;;;;;;;;18.30;82.90;;;;;;5068355;28;20003;-80
2023/10/03 12:05:36;;;;;;;;;;;18.30;82.40;;;;;;5068936;28;20373;-80
2023/10/03 12:08:04;;;;;;;;;;;18.50;81.50;;;;;;5072154;28;19970;-80
2023/10/03 12:10:31;;;;;;;;;;;18.50;81.30;;;;;;5077092;28;19912;-80
2023/10/03 12:12:57;;;;;;;;;;;18.40;80.80;;;;;;5076469;28;19912;-80
2023/10/03 12:15:24;;;;;;;;;;;18.30;81.30;;;;;;5070492;28;20384;-80
2023/10/03 12:17:50;;;;;;;;;;;18.20;81.70;;;;;;5077019;28;19915;-80
2023/10/03 12:20:18;;;;;;;;;;;18.10;81.80;;;;;;5076503;28;20013;-80
2023/10/03 12:22:44;;;;;;;;;;;18.10;83.30;;;;;;5070154;28;19913;-80
2023/10/03 12:25:10;;;;;;;;;;;18.00;83.00;;;;;;5066646;28;19938;-81
2023/10/03 12:27:36;;;;;;;;;;;18.00;82.90;;;;;;5078522;28;19912;-80
2023/10/03 12:30:04;;;;;;;;;;;17.80;84.10;;;;;;5078004;28;19912;-80
2023/10/03 12:32:34;;;;;;;;;;;17.80;84.00;;;;;;5070726;28;20004;-80
2023/10/03 12:35:00;;;;;;;;;;;17.80;83.90;;;;;;5068526;28;19912;-80
2023/10/03 12:37:25;;;;;;;;;;;17.80;82.80;;;;;;5077533;28;19917;-80
2023/10/03 12:39:50;;;;;;;;;;;17.70;83.60;;;;;;5077866;28;20361;-80
2023/10/03 12:42:16;;;;;;;;;;;17.60;83.00;;;;;;5070578;28;19980;-79
2023/10/03 12:44:41;;;;;;;;;;;17.60;82.90;;;;;;5071591;28;19909;-80
2023/10/03 12:47:07;;;;;;;;;;;17.60;82.60;;;;;;5077543;28;19913;-81
2023/10/03 12:49:32;;;;;;;;;;;17.50;82.00;;;;;;5076421;28;19909;-81
2023/10/03 12:51:59;;;;;;;;;;;17.50;81.90;;;;;;5075967;28;19921;-80
2023/10/03 12:54:25;;;;;;;;;;;17.60;81.20;;;;;;5067047;28;20067;-80
2023/10/03 12:56:50;;;;;;;;;;;17.60;81.70;;;;;;5069233;28;20390;-80
2023/10/03 12:59:17;;;;;;;;;;;17.60;80.80;;;;;;5075297;28;19913;-81
2023/10/03 13:01:45;;;;;;;;;;;17.80;81.30;;;;;;5071580;28;20400;-81
2023/10/03 13:04:10;;;;;;;;;;;17.80;80.70;;;;;;5074316;28;19916;-81
2023/10/03 13:06:36;;;;;;;;;;;17.80;81.20;;;;;;5070010;28;19909;-81
2023/10/03 13:09:02;;;;;;;;;;;18.00;81.40;;;;;;5070445;28;19916;-81
2023/10/03 13:11:28;;;;;;;;;;;17.90;80.60;;;;;;5077038;28;20471;-81
2023/10/03 13:13:54;;;;;;;;;;;18.00;80.90;;;;;;5072636;28;19916;-80
2023/10/03 13:16:21;;;;;;;;;;;18.00;82.20;;;;;;5071701;28;19927;-80
2023/10/03 13:18:47;;;;;;;;;;;17.80;82.70;;;;;;5071339;28;20439;-79
2023/10/03 13:21:13;;;;;;;;;;;17.70;83.40;;;;;;5076298;28;19909;-81
2023/10/03 13:23:39;;;;;;;;;;;17.60;83.80;;;;;;5074886;28;19931;-80
2023/10/03 13:26:05;;;;;;;;;;;17.30;84.90;;;;;;5075635;28;19916;-79
2023/10/03 13:28:30;;;;;;;;;;;17.20;86.00;;;;;;5067494;28;20297;-80
2023/10/03 13:30:56;;;;;;;;;;;17.30;86.20;;;;;;5067855;28;19913;-79
2023/10/03 13:33:22;;;;;;;;;;;17.30;86.50;;;;;;5076021;28;19924;-79
2023/10/03 13:35:48;;;;;;;;;;;17.30;86.20;;;;;;5076638;28;20293;-80
2023/10/03 13:38:13;;;;;;;;;;;17.40;85.90;;;;;;5066490;28;20530;-80
2023/10/03 13:40:38;;;;;;;;;;;17.50;85.40;;;;;;5076450;28;19930;-80
2023/10/03 13:43:05;;;;;;;;;;;17.60;85.20;;;;;;5075984;28;20319;-79
2023/10/03 13:45:30;;;;;;;;;;;17.60;85.40;;;;;;5075251;28;19922;-80
2023/10/03 13:47:56;;;;;;;;;;;17.50;85.30;;;;;;5067432;28;19916;-80
2023/10/03 13:50:22;;;;;;;;;;;17.50;85.30;;;;;;5075985;28;19962;-80
2023/10/03 13:52:48;;;;;;;;;;;17.50;85.80;;;;;;5075519;28;19940;-81
2023/10/03 13:55:15;;;;;;;;;;;17.60;85.00;;;;;;5073755;28;19927;-80
2023/10/03 13:57:42;;;;;;;;;;;17.60;84.60;;;;;;5074030;28;20384;-80
2023/10/03 14:00:12;;;;;;;;;;;17.50;84.00;;;;;;5074372;28;19928;-80
2023/10/03 14:02:50;;;;;;;;;;;17.30;83.80;;;;;;5072543;28;20408;-80
2023/10/03 14:05:16;;;;;;;;;;;17.20;84.60;;;;;;5071427;28;19920;-79
2023/10/03 14:07:41;;;;;;;;;;;17.10;86.00;;;;;;5065426;28;19948;-79
2023/10/03 14:10:09;;;;;;;;;;;17.00;86.20;;;;;;5076048;28;20016;-79
2023/10/03 14:12:34;;;;;;;;;;;17.10;85.80;;;;;;5075551;28;19988;-79
2023/10/03 14:15:00;;;;;;;;;;;17.10;85.10;;;;;;5073647;28;19955;-80
2023/10/03 14:17:25;;;;;;;;;;;17.00;84.50;;;;;;5069996;28;20582;-80
2023/10/03 14:19:51;;;;;;;;;;;16.80;84.70;;;;;;5074106;28;19948;-80
2023/10/03 14:22:18;;;;;;;;;;;16.70;84.50;;;;;;5075074;28;19912;-80
2023/10/03 14:24:44;;;;;;;;;;;16.70;83.80;;;;;;5074320;28;19940;-80